Time;durP1;ratioP1;P1;durP2;ratioP2;P2;SDS_P1;SDS_P2;PMS_P1;PMS_P2;Temp;Humidity;BMP_temperature;BMP_pressure;BME280_temperature;BME280_humidity;BME280_pressure;Samples;Min_cycle;Max_cycle;Signal;HPM_P1;HPM_P2
2023/04/19 00:01:52;;;;;;;11.60;5.10;;;21.10;47.90;;;;;;5012523;28;20444;-80
2023/04/19 00:04:20;;;;;;;10.37;5.30;;;21.10;48.10;;;;;;5004814;28;20513;-80
2023/04/19 00:06:50;;;;;;;8.57;4.80;;;21.10;48.20;;;;;;5015486;28;20532;-79
2023/04/19 00:09:18;;;;;;;20.37;5.10;;;21.10;48.20;;;;;;5014125;28;20467;-78
2023/04/19 00:11:48;;;;;;;7.20;5.27;;;21.00;48.30;;;;;;5002642;28;20448;-78
2023/04/19 00:14:16;;;;;;;14.30;4.60;;;21.00;48.40;;;;;;5007995;28;20463;-80
2023/04/19 00:16:44;;;;;;;12.00;4.47;;;21.00;48.40;;;;;;5011211;28;20977;-79
2023/04/19 00:19:12;;;;;;;9.07;4.77;;;21.00;48.60;;;;;;5009053;28;20452;-79
2023/04/19 00:21:39;;;;;;;6.67;4.80;;;20.90;48.40;;;;;;5004467;28;20437;-79
2023/04/19 00:24:08;;;;;;;12.13;5.07;;;20.90;48.40;;;;;;5008326;28;20454;-79
2023/04/19 00:26:36;;;;;;;8.43;5.37;;;20.90;48.60;;;;;;5009538;28;20477;-79
2023/04/19 00:29:05;;;;;;;14.60;4.90;;;20.90;48.60;;;;;;5012046;28;20461;-79
2023/04/19 00:31:33;;;;;;;11.93;5.07;;;20.80;48.70;;;;;;5012628;28;20451;-79
2023/04/19 00:34:01;;;;;;;7.77;5.10;;;20.80;48.80;;;;;;5011322;28;20475;-79
2023/04/19 00:36:30;;;;;;;10.53;4.97;;;20.80;48.90;;;;;;5012131;28;20449;-79
2023/04/19 00:38:58;;;;;;;12.97;5.57;;;20.80;48.90;;;;;;5013245;28;20449;-79
2023/04/19 00:41:26;;;;;;;9.03;4.70;;;20.70;48.90;;;;;;5013468;28;20486;-80
2023/04/19 00:43:54;;;;;;;9.40;5.60;;;20.70;48.90;;;;;;5006632;28;20441;-80
2023/04/19 00:46:23;;;;;;;9.63;4.93;;;20.70;49.00;;;;;;5013062;28;20442;-80
2023/04/19 00:48:51;;;;;;;9.57;4.70;;;20.70;49.00;;;;;;5013172;28;20440;-81
2023/04/19 00:51:19;;;;;;;5.97;4.73;;;20.60;49.00;;;;;;5014309;28;20456;-79
2023/04/19 00:53:47;;;;;;;6.33;4.60;;;20.60;49.00;;;;;;4995260;28;20441;-80
2023/04/19 00:56:15;;;;;;;8.70;5.30;;;20.60;49.10;;;;;;5011455;28;20448;-79
2023/04/19 00:58:43;;;;;;;11.63;5.10;;;20.50;49.10;;;;;;5012661;28;20443;-80
2023/04/19 01:01:11;;;;;;;10.60;5.53;;;20.50;49.20;;;;;;5012705;28;20460;-79
2023/04/19 01:03:41;;;;;;;8.53;4.87;;;20.50;49.10;;;;;;5012735;28;20452;-79
2023/04/19 01:06:09;;;;;;;10.20;5.17;;;20.50;49.20;;;;;;5012658;28;20468;-80
2023/04/19 01:08:38;;;;;;;10.13;4.83;;;20.40;49.10;;;;;;5014359;28;20449;-80
2023/04/19 01:11:06;;;;;;;9.37;4.53;;;20.50;49.40;;;;;;5021572;28;20469;-79
2023/04/19 01:13:34;;;;;;;14.80;4.80;;;20.40;49.20;;;;;;5011867;28;20459;-79
2023/04/19 01:16:02;;;;;;;8.13;5.17;;;20.40;49.20;;;;;;5013714;28;20455;-79
2023/04/19 01:18:36;;;;;;;7.17;4.53;;;20.40;49.20;;;;;;5012649;28;20546;-79
2023/04/19 01:21:06;;;;;;;9.93;5.07;;;20.40;49.30;;;;;;5013019;28;20483;-79
2023/04/19 01:23:37;;;;;;;10.53;5.50;;;20.30;49.30;;;;;;5013318;28;20451;-79
2023/04/19 01:26:06;;;;;;;9.80;4.73;;;20.30;49.40;;;;;;5011509;28;20455;-80
2023/04/19 01:28:34;;;;;;;7.50;5.20;;;20.30;49.40;;;;;;5010214;28;20467;-79
2023/04/19 01:31:02;;;;;;;9.63;5.00;;;20.20;49.40;;;;;;5013507;28;20456;-80
2023/04/19 01:33:30;;;;;;;7.03;4.97;;;20.20;49.30;;;;;;5014344;28;20543;-78
2023/04/19 01:35:59;;;;;;;5.67;4.87;;;20.10;49.50;;;;;;5013586;28;20448;-80
2023/04/19 01:38:27;;;;;;;6.90;4.60;;;20.10;49.50;;;;;;5012975;28;20466;-80
2023/04/19 01:40:56;;;;;;;8.00;4.87;;;20.10;49.60;;;;;;5013340;28;20476;-79
2023/04/19 01:43:24;;;;;;;5.07;4.37;;;20.10;49.70;;;;;;5005973;28;20452;-78
2023/04/19 01:45:52;;;;;;;8.13;4.90;;;20.10;49.50;;;;;;5014931;28;20447;-78
2023/04/19 01:48:20;;;;;;;8.90;4.80;;;20.00;49.50;;;;;;5014308;28;20486;-78
2023/04/19 01:50:48;;;;;;;7.07;4.50;;;20.00;49.80;;;;;;5014432;28;20460;-79
2023/04/19 01:53:17;;;;;;;9.30;5.50;;;20.00;49.50;;;;;;5014290;28;20455;-79
2023/04/19 01:55:45;;;;;;;10.77;4.50;;;20.00;49.50;;;;;;5012460;28;20460;-78
2023/04/19 01:58:15;;;;;;;7.13;4.57;;;20.00;49.70;;;;;;5012676;28;20444;-78
2023/04/19 02:00:42;;;;;;;14.40;4.63;;;19.90;49.60;;;;;;5012955;28;20483;-78
2023/04/19 02:03:10;;;;;;;8.93;5.10;;;19.90;49.80;;;;;;5012708;28;20481;-79
2023/04/19 02:05:39;;;;;;;6.53;4.60;;;19.90;49.80;;;;;;5011569;28;20499;-79
2023/04/19 02:08:07;;;;;;;7.83;4.57;;;19.90;49.80;;;;;;5006110;28;20468;-78
2023/04/19 02:10:35;;;;;;;8.80;5.10;;;19.80;49.80;;;;;;5011825;28;20476;-79
2023/04/19 02:13:03;;;;;;;7.23;4.70;;;19.80;49.80;;;;;;5013601;28;20441;-79
2023/04/19 02:15:32;;;;;;;10.13;4.50;;;19.80;49.70;;;;;;5013423;28;20453;-78
2023/04/19 02:18:00;;;;;;;7.63;4.43;;;19.80;49.70;;;;;;5013765;28;20448;-78
2023/04/19 02:20:30;;;;;;;6.90;4.13;;;19.70;49.80;;;;;;5013752;28;20533;-79
2023/04/19 02:22:58;;;;;;;6.20;5.00;;;19.70;49.80;;;;;;5008787;28;20484;-80
2023/04/19 02:25:26;;;;;;;5.70;4.90;;;19.70;49.90;;;;;;5013880;28;20456;-79
2023/04/19 02:27:54;;;;;;;10.63;4.80;;;19.70;49.90;;;;;;5012434;28;20472;-78
2023/04/19 02:30:22;;;;;;;7.63;4.73;;;19.60;49.70;;;;;;5012625;28;20475;-80
2023/04/19 02:32:51;;;;;;;8.13;4.47;;;19.60;49.80;;;;;;5012994;28;20433;-80
2023/04/19 02:35:20;;;;;;;6.97;4.70;;;19.60;49.80;;;;;;5011885;28;20514;-79
2023/04/19 02:37:48;;;;;;;5.50;4.43;;;19.60;50.00;;;;;;5012268;28;20474;-79
2023/04/19 02:40:16;;;;;;;6.53;4.57;;;19.60;49.70;;;;;;5012587;28;20464;-79
2023/04/19 02:42:44;;;;;;;5.70;4.40;;;19.60;49.90;;;;;;5013896;28;20475;-79
2023/04/19 02:45:12;;;;;;;9.33;4.87;;;19.60;49.90;;;;;;5017105;28;20448;-79
2023/04/19 02:47:40;;;;;;;7.70;4.73;;;19.50;49.90;;;;;;5017829;28;20567;-78
2023/04/19 02:50:10;;;;;;;4.90;4.10;;;19.50;50.00;;;;;;5022016;28;20897;-82
2023/04/19 02:52:38;;;;;;;6.73;5.00;;;19.50;50.00;;;;;;5036991;28;20516;-82
2023/04/19 02:55:07;;;;;;;5.53;4.30;;;19.50;49.90;;;;;;5038145;28;20496;-83
2023/04/19 02:57:34;;;;;;;5.17;4.67;;;19.50;49.90;;;;;;5038306;28;20435;-83
2023/04/19 03:00:04;;;;;;;5.00;4.50;;;19.40;49.90;;;;;;5038202;28;20475;-81
2023/04/19 03:02:32;;;;;;;5.03;4.37;;;19.40;49.90;;;;;;5037289;28;20436;-81
2023/04/19 03:05:00;;;;;;;7.90;4.80;;;19.40;49.90;;;;;;5026855;28;20532;-80
2023/04/19 03:07:30;;;;;;;5.43;4.80;;;19.40;50.00;;;;;;5032493;28;20482;-80
2023/04/19 03:09:58;;;;;;;7.77;4.60;;;19.30;49.90;;;;;;5002879;28;20473;-79
2023/04/19 03:12:26;;;;;;;5.27;4.50;;;19.30;50.00;;;;;;5018926;28;20538;-80
2023/04/19 03:14:54;;;;;;;3.80;3.50;;;19.30;50.10;;;;;;5017137;28;20452;-79
2023/04/19 03:17:22;;;;;;;6.83;4.87;;;19.20;50.00;;;;;;5013906;28;20449;-79
2023/04/19 03:19:51;;;;;;;4.97;4.10;;;19.20;50.10;;;;;;5012261;28;20488;-79
2023/04/19 03:22:19;;;;;;;7.07;4.47;;;19.20;50.20;;;;;;5013584;28;20455;-79
2023/04/19 03:24:48;;;;;;;5.93;4.97;;;19.20;50.00;;;;;;5013123;28;20479;-79
2023/04/19 03:27:16;;;;;;;6.13;4.30;;;19.20;50.30;;;;;;5005832;28;20461;-79
2023/04/19 03:29:45;;;;;;;6.07;3.90;;;19.20;50.30;;;;;;5012375;28;20548;-78
2023/04/19 03:32:15;;;;;;;5.90;4.97;;;19.20;50.20;;;;;;5013513;28;20479;-78
2023/04/19 03:34:43;;;;;;;8.57;4.10;;;19.10;50.10;;;;;;5013028;28;20454;-79
2023/04/19 03:37:11;;;;;;;4.13;3.73;;;19.10;50.30;;;;;;5013689;28;20456;-79
2023/04/19 03:39:39;;;;;;;5.33;4.47;;;19.00;50.00;;;;;;5008549;28;20472;-78
2023/04/19 03:42:09;;;;;;;6.87;4.40;;;19.00;50.10;;;;;;5013317;28;20449;-78
2023/04/19 03:44:37;;;;;;;7.97;4.53;;;19.00;50.20;;;;;;5013660;28;20448;-79
2023/04/19 03:47:05;;;;;;;5.03;4.57;;;19.00;50.10;;;;;;5011604;28;20452;-78
2023/04/19 03:49:34;;;;;;;5.00;4.50;;;19.00;50.90;;;;;;5011703;28;20491;-78
2023/04/19 03:52:02;;;;;;;6.20;4.10;;;19.00;50.00;;;;;;5009857;28;20495;-78
2023/04/19 03:54:30;;;;;;;7.53;4.53;;;18.90;50.20;;;;;;5008549;28;20448;-78
2023/04/19 03:56:58;;;;;;;4.93;4.03;;;18.90;50.20;;;;;;5006476;28;20473;-79
2023/04/19 03:59:27;;;;;;;4.30;3.70;;;18.90;50.20;;;;;;5012605;28;20440;-79
2023/04/19 04:01:55;;;;;;;6.30;4.70;;;18.90;50.30;;;;;;5012801;28;20443;-79
2023/04/19 04:04:23;;;;;;;6.93;4.30;;;18.80;50.20;;;;;;5008630;28;20436;-79
2023/04/19 04:06:51;;;;;;;4.63;4.20;;;18.80;50.20;;;;;;5012792;28;20453;-78
2023/04/19 04:09:19;;;;;;;5.30;4.00;;;18.80;50.30;;;;;;5012557;28;20468;-79
2023/04/19 04:11:47;;;;;;;4.10;3.80;;;18.80;50.30;;;;;;5002311;28;20465;-78
2023/04/19 04:14:15;;;;;;;5.10;4.17;;;18.80;50.20;;;;;;5018365;28;20448;-80
2023/04/19 04:16:45;;;;;;;6.83;4.13;;;18.80;50.20;;;;;;5013803;28;20475;-78
2023/04/19 04:19:13;;;;;;;7.73;4.27;;;18.70;50.10;;;;;;5012952;28;20527;-78
2023/04/19 04:21:41;;;;;;;8.93;4.37;;;18.70;49.80;;;;;;5013389;28;20444;-79
2023/04/19 04:24:09;;;;;;;4.53;4.13;;;18.70;50.10;;;;;;5011900;28;20463;-79
2023/04/19 04:26:38;;;;;;;4.70;4.20;;;18.70;50.00;;;;;;5013131;28;20443;-78
2023/04/19 04:29:07;;;;;;;8.73;4.30;;;18.70;50.00;;;;;;5012911;28;20475;-78
2023/04/19 04:31:35;;;;;;;4.60;4.20;;;18.70;50.00;;;;;;5012045;28;20448;-78
2023/04/19 04:34:05;;;;;;;6.33;4.30;;;18.70;50.00;;;;;;5006985;28;20516;-80
2023/04/19 04:36:35;;;;;;;6.63;4.17;;;18.60;50.00;;;;;;5012260;28;20463;-78
2023/04/19 04:39:03;;;;;;;7.13;4.37;;;18.60;50.00;;;;;;5007092;28;20472;-78
2023/04/19 04:41:31;;;;;;;4.50;4.10;;;18.60;49.90;;;;;;5008954;28;20476;-79
2023/04/19 04:44:00;;;;;;;5.77;4.40;;;18.50;50.00;;;;;;5007514;28;20451;-78
2023/04/19 04:46:30;;;;;;;5.30;4.33;;;18.50;49.80;;;;;;5003878;28;20452;-79
2023/04/19 04:48:58;;;;;;;4.43;4.03;;;18.50;49.90;;;;;;5012085;28;20475;-79
2023/04/19 04:51:28;;;;;;;5.20;4.43;;;18.50;50.10;;;;;;5010403;28;20472;-80
2023/04/19 04:53:56;;;;;;;6.43;3.80;;;18.50;49.80;;;;;;5011474;28;20456;-79
2023/04/19 04:56:25;;;;;;;3.73;3.43;;;18.50;50.00;;;;;;5006462;28;20480;-79
2023/04/19 04:58:53;;;;;;;7.90;4.40;;;18.50;49.90;;;;;;5008484;28;20448;-80
2023/04/19 05:01:22;;;;;;;6.30;4.10;;;18.50;50.10;;;;;;5011433;28;20491;-80
2023/04/19 05:03:51;;;;;;;9.83;4.10;;;18.50;50.00;;;;;;5011963;28;20456;-80
2023/04/19 05:06:19;;;;;;;5.03;3.97;;;18.50;50.20;;;;;;5004997;28;20456;-78
2023/04/19 05:08:49;;;;;;;5.27;4.47;;;18.50;50.10;;;;;;5003802;28;20473;-80
2023/04/19 05:11:17;;;;;;;4.47;4.03;;;18.40;49.90;;;;;;5015767;28;20474;-78
2023/04/19 05:13:45;;;;;;;5.00;4.17;;;18.40;50.10;;;;;;5009594;28;20457;-78
2023/04/19 05:16:13;;;;;;;9.63;5.30;;;18.40;50.00;;;;;;5014745;28;20539;-77
2023/04/19 05:18:42;;;;;;;8.90;5.00;;;18.40;50.10;;;;;;5015585;28;20478;-80
2023/04/19 05:21:10;;;;;;;9.30;5.27;;;18.40;50.30;;;;;;5007467;28;20472;-79
2023/04/19 05:23:38;;;;;;;6.00;5.10;;;18.40;50.60;;;;;;5008323;28;20449;-78
2023/04/19 05:26:11;;;;;;;6.37;4.80;;;18.40;50.40;;;;;;5014552;28;20463;-79
2023/04/19 05:28:40;;;;;;;9.87;4.77;;;18.40;50.30;;;;;;5012411;28;20479;-79
2023/04/19 05:31:08;;;;;;;9.60;5.43;;;18.40;50.30;;;;;;5008382;28;20522;-78
2023/04/19 05:33:36;;;;;;;12.40;5.10;;;18.40;50.50;;;;;;5011259;28;20535;-79
2023/04/19 05:36:05;;;;;;;9.50;5.23;;;18.40;50.20;;;;;;5007250;28;20452;-78
2023/04/19 05:38:33;;;;;;;11.17;4.87;;;18.40;50.20;;;;;;5016135;28;20440;-78
2023/04/19 05:41:01;;;;;;;12.60;5.13;;;18.50;50.40;;;;;;5011297;28;20470;-78
2023/04/19 05:43:31;;;;;;;7.57;5.23;;;18.50;50.30;;;;;;5016142;28;20444;-78
2023/04/19 05:45:58;;;;;;;12.97;5.73;;;18.50;50.10;;;;;;5009959;28;20449;-77
2023/04/19 05:48:26;;;;;;;7.23;5.13;;;18.40;50.20;;;;;;5014464;28;20447;-79
2023/04/19 05:50:56;;;;;;;8.43;5.50;;;18.40;50.30;;;;;;5012968;28;20479;-79
2023/04/19 05:53:24;;;;;;;6.80;5.20;;;18.40;50.30;;;;;;5010420;28;20447;-78
2023/04/19 05:55:52;;;;;;;9.03;6.00;;;18.40;50.30;;;;;;5009234;28;20444;-78
2023/04/19 05:58:22;;;;;;;10.70;4.87;;;18.40;50.50;;;;;;5010987;28;20831;-78
2023/04/19 06:00:51;;;;;;;7.27;5.30;;;18.50;50.40;;;;;;5013485;28;20471;-78
2023/04/19 06:03:19;;;;;;;10.40;5.80;;;18.50;50.20;;;;;;5004181;28;20484;-79
2023/04/19 06:05:48;;;;;;;6.67;5.47;;;18.50;50.40;;;;;;5010210;28;20475;-79
2023/04/19 06:08:17;;;;;;;5.90;5.30;;;18.50;50.50;;;;;;5012309;28;20455;-78
2023/04/19 06:10:48;;;;;;;6.53;5.20;;;18.60;50.40;;;;;;5014361;28;20472;-78
2023/04/19 06:13:22;;;;;;;7.63;5.37;;;18.60;50.60;;;;;;5008804;28;20451;-79
2023/04/19 06:15:51;;;;;;;6.87;5.70;;;18.60;50.40;;;;;;5013335;28;20462;-79
2023/04/19 06:18:19;;;;;;;9.20;5.70;;;18.60;50.50;;;;;;5013289;28;20483;-79
2023/04/19 06:20:47;;;;;;;7.40;4.80;;;18.70;50.70;;;;;;5014068;28;20479;-78
2023/04/19 06:23:17;;;;;;;7.80;5.40;;;18.70;50.70;;;;;;5015852;28;20460;-78
2023/04/19 06:25:47;;;;;;;8.57;5.40;;;18.70;50.60;;;;;;5017223;28;20443;-79
2023/04/19 06:28:16;;;;;;;6.07;4.73;;;18.80;50.70;;;;;;5015520;28;20472;-79
2023/04/19 06:30:43;;;;;;;8.47;5.40;;;18.80;50.80;;;;;;5015316;28;20480;-79
2023/04/19 06:33:13;;;;;;;6.17;5.00;;;18.80;51.10;;;;;;5011211;28;20483;-78
2023/04/19 06:35:42;;;;;;;7.47;5.77;;;18.90;50.80;;;;;;5015650;28;20440;-79
2023/04/19 06:38:09;;;;;;;9.73;5.90;;;18.90;50.80;;;;;;5015401;28;20453;-79
2023/04/19 06:40:38;;;;;;;6.03;5.43;;;18.90;50.80;;;;;;5014228;28;20465;-79
2023/04/19 06:43:06;;;;;;;9.30;5.60;;;19.00;51.10;;;;;;5015323;28;20453;-78
2023/04/19 06:45:35;;;;;;;7.80;5.70;;;19.00;51.20;;;;;;5011994;28;20465;-78
2023/04/19 06:48:04;;;;;;;6.87;5.20;;;19.10;51.30;;;;;;5007990;28;20452;-79
2023/04/19 06:50:33;;;;;;;7.17;5.30;;;19.10;51.30;;;;;;5014632;28;20547;-79
2023/04/19 06:53:02;;;;;;;9.23;5.73;;;19.10;51.30;;;;;;5015108;28;20540;-80
2023/04/19 06:55:31;;;;;;;6.87;5.30;;;19.20;51.40;;;;;;5015361;28;20444;-78
2023/04/19 06:57:59;;;;;;;6.33;5.67;;;19.20;51.50;;;;;;5015411;28;20480;-78
2023/04/19 07:00:28;;;;;;;5.63;5.03;;;19.30;51.60;;;;;;5004050;28;20483;-80
2023/04/19 07:02:58;;;;;;;9.00;5.20;;;19.30;51.40;;;;;;5011198;28;20452;-79
2023/04/19 07:05:27;;;;;;;7.30;4.77;;;19.30;51.60;;;;;;5014961;28;20962;-79
2023/04/19 07:07:56;;;;;;;7.17;5.13;;;19.30;51.60;;;;;;5015502;28;20437;-78
2023/04/19 07:10:25;;;;;;;8.87;4.80;;;19.40;51.60;;;;;;5014289;28;20559;-79
2023/04/19 07:12:53;;;;;;;10.80;5.10;;;19.50;51.60;;;;;;5014386;28;20535;-80
2023/04/19 07:15:21;;;;;;;8.57;5.00;;;19.60;51.60;;;;;;5012353;28;20453;-77
2023/04/19 07:17:49;;;;;;;5.13;4.63;;;19.70;51.60;;;;;;5012767;28;20456;-80
2023/04/19 07:20:18;;;;;;;7.63;5.57;;;19.80;51.60;;;;;;5022794;28;20468;-79
2023/04/19 07:22:46;;;;;;;6.77;5.20;;;19.90;51.30;;;;;;5016402;28;20448;-80
2023/04/19 07:25:16;;;;;;;5.77;4.43;;;20.00;51.40;;;;;;5015156;28;20445;-78
2023/04/19 07:27:44;;;;;;;6.33;4.70;;;20.20;51.30;;;;;;5014954;28;20444;-79
2023/04/19 07:30:13;;;;;;;7.80;4.50;;;20.30;51.20;;;;;;5006450;28;20476;-79
2023/04/19 07:32:41;;;;;;;4.60;4.20;;;20.40;51.10;;;;;;5014209;28;20460;-78
2023/04/19 07:35:10;;;;;;;5.80;4.57;;;20.50;50.80;;;;;;5014927;28;20448;-79
2023/04/19 07:37:38;;;;;;;7.00;4.90;;;20.60;50.80;;;;;;5015053;28;20479;-79
2023/04/19 07:40:07;;;;;;;5.50;4.30;;;20.70;50.80;;;;;;5014145;28;20464;-79
2023/04/19 07:42:37;;;;;;;4.50;4.10;;;20.80;50.70;;;;;;5014419;28;20448;-79
2023/04/19 07:45:06;;;;;;;8.43;4.60;;;21.00;50.60;;;;;;5013874;28;20456;-79
2023/04/19 07:47:34;;;;;;;5.03;4.27;;;21.10;50.50;;;;;;5015518;28;20945;-78
2023/04/19 07:50:04;;;;;;;5.57;4.20;;;21.20;50.40;;;;;;5014596;28;20472;-79
2023/04/19 07:52:33;;;;;;;4.90;4.30;;;21.40;50.40;;;;;;5009274;28;20459;-78
2023/04/19 07:55:01;;;;;;;5.17;3.57;;;21.50;50.10;;;;;;5014556;28;20448;-79
2023/04/19 07:57:29;;;;;;;5.17;4.07;;;21.70;50.20;;;;;;5014670;28;20468;-79
2023/04/19 07:59:58;;;;;;;5.83;3.70;;;21.90;50.10;;;;;;5013080;28;20477;-79
2023/04/19 08:02:27;;;;;;;3.93;3.50;;;22.00;49.90;;;;;;5013654;28;20460;-79
2023/04/19 08:04:56;;;;;;;4.77;4.30;;;22.10;49.80;;;;;;5013289;28;20444;-78
2023/04/19 08:07:25;;;;;;;4.17;3.80;;;22.30;49.80;;;;;;5014301;28;20452;-79
2023/04/19 08:09:53;;;;;;;4.33;3.87;;;22.50;49.60;;;;;;5013360;28;20490;-79
2023/04/19 08:12:21;;;;;;;6.70;3.80;;;22.60;49.60;;;;;;5014012;28;20448;-78
2023/04/19 08:15:08;;;;;;;4.70;3.70;;;22.80;49.50;;;;;;5013373;28;20448;-79
2023/04/19 08:17:57;;;;;;;3.90;3.60;;;23.00;49.30;;;;;;5014107;28;20437;-80
2023/04/19 08:20:25;;;;;;;5.00;3.77;;;23.20;49.20;;;;;;5013505;28;20468;-80
2023/04/19 08:22:54;;;;;;;3.67;3.37;;;23.40;49.10;;;;;;5013998;28;20450;-79
2023/04/19 08:25:25;;;;;;;5.30;3.57;;;23.60;49.00;;;;;;5013819;28;20419;-79
2023/04/19 08:27:53;;;;;;;4.40;3.80;;;23.80;48.90;;;;;;5013126;28;20452;-78
2023/04/19 08:30:23;;;;;;;3.47;3.17;;;23.90;48.80;;;;;;5013818;28;20445;-78
2023/04/19 08:32:51;;;;;;;3.53;3.23;;;24.10;48.50;;;;;;5013737;28;20444;-78
2023/04/19 08:35:24;;;;;;;4.20;3.90;;;24.30;48.50;;;;;;5014478;28;20414;-79
2023/04/19 08:37:52;;;;;;;3.80;3.40;;;24.50;48.50;;;;;;5014023;28;20437;-78
2023/04/19 08:40:20;;;;;;;3.07;2.87;;;24.60;48.20;;;;;;5016429;28;20431;-78
2023/04/19 08:42:48;;;;;;;3.07;2.87;;;24.80;48.20;;;;;;5017695;28;20547;-78
2023/04/19 08:45:16;;;;;;;3.27;2.90;;;25.00;48.30;;;;;;5019231;28;20941;-79
2023/04/19 08:47:56;;;;;;;4.80;2.90;;;25.20;47.90;;;;;;5018227;28;20419;-78
2023/04/19 08:50:28;;;;;;;4.77;3.20;;;25.40;47.50;;;;;;5017595;28;20480;-79
2023/04/19 08:53:12;;;;;;;4.60;2.80;;;25.60;47.50;;;;;;5017876;28;20443;-79
2023/04/19 08:55:53;;;;;;;3.60;2.37;;;25.70;47.10;;;;;;5018206;28;20481;-79
2023/04/19 08:58:41;;;;;;;5.33;3.00;;;25.90;47.00;;;;;;5016202;28;20852;-79
2023/04/19 09:01:12;;;;;;;2.87;2.40;;;26.20;46.80;;;;;;5018170;28;20439;-78
2023/04/19 09:03:59;;;;;;;2.70;2.50;;;26.30;46.60;;;;;;5017836;28;20917;-79
2023/04/19 09:06:47;;;;;;;2.40;2.30;;;26.50;46.50;;;;;;5019055;28;20410;-79
2023/04/19 09:09:25;;;;;;;3.03;2.67;;;26.70;46.30;;;;;;5018027;28;20430;-78
2023/04/19 09:11:58;;;;;;;2.60;2.50;;;26.90;46.10;;;;;;5014740;28;20468;-80
2023/04/19 09:14:28;;;;;;;3.30;2.40;;;27.10;45.80;;;;;;5017772;28;20441;-79
2023/04/19 09:17:11;;;;;;;2.40;2.30;;;27.30;45.70;;;;;;5017889;28;20423;-79
2023/04/19 09:19:46;;;;;;;2.67;2.47;;;27.50;45.60;;;;;;5018166;28;20490;-79
2023/04/19 09:22:15;;;;;;;1.90;1.80;;;27.70;45.40;;;;;;5017974;28;20422;-78
2023/04/19 09:24:43;;;;;;;2.27;2.07;;;27.90;45.20;;;;;;5018415;28;20959;-77
2023/04/19 09:27:14;;;;;;;2.30;2.20;;;28.00;44.80;;;;;;5011132;28;20456;-78
2023/04/19 09:29:44;;;;;;;2.20;2.10;;;28.20;44.40;;;;;;5018191;28;20464;-79
2023/04/19 09:32:12;;;;;;;2.47;2.30;;;28.40;44.30;;;;;;5018196;28;20534;-80
2023/04/19 09:34:45;;;;;;;2.40;2.30;;;28.60;44.10;;;;;;5018144;28;20516;-79
2023/04/19 09:37:14;;;;;;;2.03;1.93;;;28.80;43.80;;;;;;5017733;28;20452;-79
2023/04/19 09:40:04;;;;;;;3.27;1.90;;;28.90;43.50;;;;;;5017734;28;20430;-80
2023/04/19 09:42:45;;;;;;;4.27;2.30;;;29.20;43.40;;;;;;5018709;28;20427;-76
2023/04/19 09:45:42;;;;;;;2.20;2.07;;;29.40;43.20;;;;;;5012649;28;20425;-78
2023/04/19 09:48:11;;;;;;;1.60;1.60;;;29.60;42.70;;;;;;5018140;28;20451;-78
2023/04/19 09:50:52;;;;;;;1.63;1.53;;;29.80;42.40;;;;;;5017495;28;20492;-78
2023/04/19 09:53:32;;;;;;;1.80;1.70;;;29.90;42.10;;;;;;5004852;28;20436;-79
2023/04/19 09:56:01;;;;;;;2.30;2.20;;;30.20;42.00;;;;;;5012535;28;20461;-79
2023/04/19 09:58:31;;;;;;;2.00;1.90;;;30.30;41.90;;;;;;5018520;28;20455;-78
2023/04/19 10:01:02;;;;;;;1.90;1.80;;;30.50;41.50;;;;;;5018793;28;20449;-78
2023/04/19 10:03:44;;;;;;;2.20;1.47;;;30.70;41.30;;;;;;5018300;28;20448;-78
2023/04/19 10:06:16;;;;;;;1.80;1.70;;;31.00;41.00;;;;;;5018406;28;20441;-79
2023/04/19 10:09:04;;;;;;;1.97;1.87;;;31.10;40.70;;;;;;5015388;28;20511;-79
2023/04/19 10:11:37;;;;;;;1.33;1.33;;;31.30;40.40;;;;;;5018571;28;20835;-77
2023/04/19 10:14:06;;;;;;;1.63;1.57;;;31.50;40.10;;;;;;5017987;28;20445;-78
2023/04/19 10:16:35;;;;;;;1.67;1.67;;;31.70;39.90;;;;;;5018498;28;20448;-77
2023/04/19 10:19:03;;;;;;;1.50;1.40;;;31.90;39.70;;;;;;5018431;28;20452;-79
2023/04/19 10:21:33;;;;;;;1.70;1.60;;;32.10;39.50;;;;;;5018288;28;20464;-78
2023/04/19 10:24:01;;;;;;;1.40;1.40;;;32.30;39.30;;;;;;5018210;28;20459;-77
2023/04/19 10:26:30;;;;;;;1.63;1.63;;;32.50;39.00;;;;;;5025816;28;20447;-79
2023/04/19 10:28:58;;;;;;;1.40;1.40;;;32.70;38.80;;;;;;5019039;28;20451;-77
2023/04/19 10:31:26;;;;;;;1.60;1.50;;;32.90;38.70;;;;;;5018448;28;20464;-78
2023/04/19 10:33:56;;;;;;;1.90;1.30;;;33.10;38.30;;;;;;5017250;28;20444;-79
2023/04/19 10:36:26;;;;;;;1.57;1.57;;;33.30;38.00;;;;;;5016266;28;20441;-79
2023/04/19 10:38:55;;;;;;;1.10;1.10;;;33.50;37.90;;;;;;5017894;28;20456;-77
2023/04/19 10:41:23;;;;;;;1.23;1.13;;;33.70;37.50;;;;;;5014989;28;20469;-79
2023/04/19 10:44:09;;;;;;;1.30;1.30;;;33.90;37.20;;;;;;5012196;28;20460;-78
2023/04/19 10:46:38;;;;;;;1.37;1.30;;;34.20;37.10;;;;;;5012768;28;20435;-79
2023/04/19 10:49:08;;;;;;;1.47;1.37;;;34.20;36.70;;;;;;5018630;28;20456;-78
2023/04/19 10:51:37;;;;;;;1.27;1.20;;;34.30;36.50;;;;;;5017282;28;20469;-79
2023/04/19 10:54:07;;;;;;;1.50;1.40;;;34.40;36.40;;;;;;5011706;28;20456;-78
2023/04/19 10:57:03;;;;;;;1.20;1.20;;;34.40;36.10;;;;;;5018467;28;20432;-79
2023/04/19 10:59:33;;;;;;;2.10;1.20;;;34.60;36.20;;;;;;4994701;28;20552;-79
2023/04/19 11:02:02;;;;;;;1.30;1.30;;;34.80;35.90;;;;;;5017566;28;20441;-78
2023/04/19 11:05:00;;;;;;;1.20;1.20;;;35.00;35.70;;;;;;5015540;28;20448;-78
2023/04/19 11:07:29;;;;;;;1.37;1.37;;;35.10;35.40;;;;;;4956810;29;20477;-79
2023/04/19 11:09:58;;;;;;;1.30;1.20;;;35.40;35.30;;;;;;5003888;28;21080;-79
2023/04/19 11:12:27;;;;;;;1.30;1.20;;;35.50;34.90;;;;;;5016243;28;20471;-79
2023/04/19 11:14:59;;;;;;;1.03;1.03;;;36.00;34.80;;;;;;5016864;28;20528;-78
2023/04/19 11:17:29;;;;;;;1.17;1.10;;;37.10;33.90;;;;;;5017648;28;20475;-79
2023/04/19 11:20:00;;;;;;;0.90;0.90;;;38.50;32.30;;;;;;5016558;28;20484;-80
2023/04/19 11:22:32;;;;;;;0.87;0.87;;;39.80;30.70;;;;;;5008380;28;20990;-77
2023/04/19 11:25:08;;;;;;;0.97;0.97;;;41.00;29.60;;;;;;5012416;28;20444;-76
2023/04/19 11:27:36;;;;;;;0.90;0.90;;;42.20;28.50;;;;;;5012623;28;20470;-78
2023/04/19 11:30:06;;;;;;;1.10;1.10;;;43.30;27.70;;;;;;5012038;28;20510;-78
2023/04/19 11:32:34;;;;;;;1.03;0.80;;;44.20;27.00;;;;;;5015708;28;20625;-79
2023/04/19 11:35:07;;;;;;;0.70;0.70;;;45.00;26.10;;;;;;5008048;28;20453;-78
2023/04/19 11:37:36;;;;;;;1.07;0.70;;;45.70;25.50;;;;;;5015521;28;20456;-79
2023/04/19 11:40:07;;;;;;;0.70;0.70;;;46.50;24.90;;;;;;5015230;28;20472;-79
2023/04/19 11:42:35;;;;;;;0.80;0.80;;;47.10;24.20;;;;;;5014204;28;20201;-78
2023/04/19 11:45:04;;;;;;;1.83;0.77;;;47.60;23.70;;;;;;5012884;28;20266;-80
2023/04/19 11:47:47;;;;;;;0.68;0.65;;;48.20;23.40;;;;;;5011960;28;20206;-79
2023/04/19 11:50:31;;;;;;;0.70;0.70;;;48.80;22.90;;;;;;5011672;28;20779;-79
2023/04/19 11:52:59;;;;;;;0.60;0.60;;;49.10;22.50;;;;;;5007082;28;20217;-78
2023/04/19 11:55:32;;;;;;;0.60;0.60;;;49.20;22.40;;;;;;5013155;28;20198;-78
2023/04/19 11:58:00;;;;;;;0.70;0.70;;;49.50;22.20;;;;;;5013629;28;20202;-77
2023/04/19 12:00:29;;;;;;;0.68;0.68;;;49.70;21.80;;;;;;5012387;28;20223;-78
2023/04/19 12:02:57;;;;;;;0.50;0.50;;;50.10;21.70;;;;;;5014104;28;20198;-79
2023/04/19 12:05:25;;;;;;;0.60;0.60;;;50.10;21.40;;;;;;4995282;28;20213;-80
2023/04/19 12:07:59;;;;;;;0.50;0.50;;;50.30;21.30;;;;;;4996510;28;20207;-78
2023/04/19 12:10:29;;;;;;;0.60;0.60;;;50.40;21.70;;;;;;4996791;28;20770;-79
2023/04/19 12:12:57;;;;;;;0.60;0.60;;;50.50;21.00;;;;;;4996141;28;20258;-79
2023/04/19 12:15:41;;;;;;;0.50;0.50;;;50.60;21.00;;;;;;4999145;28;20294;-79
2023/04/19 12:18:09;;;;;;;0.50;0.50;;;50.80;20.90;;;;;;5015412;28;20198;-79
2023/04/19 12:20:38;;;;;;;0.60;0.60;;;50.90;21.00;;;;;;5015871;28;20261;-79
2023/04/19 12:23:09;;;;;;;0.60;0.60;;;51.00;20.70;;;;;;5015700;28;20220;-78
2023/04/19 12:25:39;;;;;;;0.50;0.50;;;51.00;20.70;;;;;;5015769;28;20206;-79
2023/04/19 12:28:07;;;;;;;0.60;0.60;;;51.20;20.60;;;;;;5016415;28;20202;-79
2023/04/19 12:30:36;;;;;;;0.50;0.50;;;51.60;20.30;;;;;;5014256;28;20226;-79
2023/04/19 12:33:04;;;;;;;0.57;0.57;;;51.60;20.20;;;;;;5013872;28;20736;-79
2023/04/19 12:35:32;;;;;;;0.57;0.57;;;51.70;20.10;;;;;;5014096;28;20274;-79
2023/04/19 12:38:01;;;;;;;0.50;0.50;;;51.90;19.80;;;;;;5014098;28;20212;-79
2023/04/19 12:40:29;;;;;;;1.00;1.00;;;51.90;19.80;;;;;;5013211;28;20219;-78
2023/04/19 12:42:59;;;;;;;0.50;0.50;;;51.90;19.80;;;;;;5009558;28;20223;-79
2023/04/19 12:45:27;;;;;;;0.55;0.55;;;52.00;19.60;;;;;;5013530;28;20209;-80
2023/04/19 12:47:56;;;;;;;0.50;0.50;;;52.00;19.70;;;;;;5014614;28;20689;-79
2023/04/19 12:50:24;;;;;;;0.50;0.50;;;52.10;19.60;;;;;;5014042;28;20261;-79
2023/04/19 12:52:52;;;;;;;0.52;0.52;;;52.10;19.60;;;;;;5014101;28;20293;-79
2023/04/19 12:55:21;;;;;;;0.40;0.40;;;52.10;19.50;;;;;;5013817;28;20210;-79
2023/04/19 12:57:48;;;;;;;0.60;0.60;;;52.10;19.30;;;;;;5013545;28;20205;-78
2023/04/19 13:00:18;;;;;;;0.50;0.50;;;52.20;19.30;;;;;;5010341;28;20230;-79